createdAt,value
2023-01-12T00:01:06.717Z,1.30
2023-01-12T00:03:33.453Z,1.30
2023-01-12T00:05:59.996Z,1.45
2023-01-12T00:08:26.570Z,1.27
2023-01-12T00:10:56.384Z,1.23
2023-01-12T00:13:22.958Z,1.38
2023-01-12T00:15:49.593Z,1.05
2023-01-12T00:18:16.185Z,1.45
2023-01-12T00:20:48.069Z,0.90
2023-01-12T00:23:14.680Z,0.98
2023-01-12T00:25:41.190Z,1.08
2023-01-12T00:28:07.751Z,1.20
2023-01-12T00:30:34.298Z,0.90
2023-01-12T00:33:00.934Z,1.17
2023-01-12T00:35:27.459Z,1.30
2023-01-12T00:37:53.948Z,1.40
2023-01-12T00:40:20.503Z,1.30
2023-01-12T00:42:47.047Z,1.27
2023-01-12T00:45:13.698Z,1.40
2023-01-12T00:47:40.287Z,1.08
2023-01-12T00:50:07.254Z,0.90
2023-01-12T00:52:33.841Z,1.20
2023-01-12T00:55:00.431Z,1.15
2023-01-12T00:57:27.348Z,1.00
2023-01-12T00:59:53.877Z,1.08
2023-01-12T01:02:20.704Z,1.05
2023-01-12T01:04:47.314Z,1.20
2023-01-12T01:07:13.863Z,1.15
2023-01-12T01:09:40.421Z,1.10
2023-01-12T01:12:07.332Z,1.00
2023-01-12T01:14:33.907Z,1.30
2023-01-12T01:17:00.484Z,0.82
2023-01-12T01:19:27.054Z,1.13
2023-01-12T01:21:53.639Z,1.10
2023-01-12T01:24:20.228Z,1.02
2023-01-12T01:26:46.795Z,1.30
2023-01-12T01:29:13.353Z,0.90
2023-01-12T01:31:39.960Z,1.38
2023-01-12T01:34:06.560Z,1.10
2023-01-12T01:36:33.478Z,1.58
2023-01-12T01:39:00.099Z,0.93
2023-01-12T01:41:28.316Z,1.00
2023-01-12T01:43:58.810Z,1.23
2023-01-12T01:46:27.321Z,0.90
2023-01-12T01:48:53.967Z,1.02
2023-01-12T01:51:20.491Z,1.38
2023-01-12T01:53:47.082Z,1.20
2023-01-12T01:56:22.267Z,1.25
2023-01-12T01:58:58.157Z,1.20
2023-01-12T02:01:24.799Z,1.08
2023-01-12T02:03:52.165Z,1.02
2023-01-12T02:06:18.837Z,1.10
2023-01-12T02:08:52.368Z,1.15
2023-01-12T02:11:18.931Z,0.90
2023-01-12T02:13:45.553Z,1.10
2023-01-12T02:16:19.984Z,1.00
2023-01-12T02:18:55.876Z,1.05
2023-01-12T02:21:25.346Z,1.08
2023-01-12T02:24:22.129Z,1.10
2023-01-12T02:27:16.450Z,1.30
2023-01-12T02:30:01.954Z,0.98
2023-01-12T02:32:46.323Z,0.90
2023-01-12T02:35:24.984Z,1.30
2023-01-12T02:38:14.750Z,1.08
2023-01-12T02:40:52.336Z,0.90
2023-01-12T02:43:29.513Z,1.08
2023-01-12T02:46:11.162Z,0.85
2023-01-12T02:48:47.750Z,1.08
2023-01-12T02:51:26.269Z,0.93
2023-01-12T02:53:55.161Z,1.00
2023-01-12T02:56:29.985Z,1.08
2023-01-12T02:58:58.401Z,1.00
2023-01-12T03:01:25.587Z,1.00
2023-01-12T03:03:53.966Z,0.93
2023-01-12T03:06:20.531Z,1.08
2023-01-12T03:08:47.967Z,0.82
2023-01-12T03:11:18.528Z,1.00
2023-01-12T03:13:53.465Z,1.02
2023-01-12T03:16:22.954Z,0.88
2023-01-12T03:19:04.328Z,1.13
2023-01-12T03:21:47.293Z,1.02
2023-01-12T03:24:23.871Z,0.90
2023-01-12T03:26:52.009Z,1.20
2023-01-12T03:29:25.464Z,0.95
2023-01-12T03:31:52.043Z,1.27
2023-01-12T03:34:18.702Z,1.10
2023-01-12T03:36:46.032Z,1.00
2023-01-12T03:39:34.475Z,1.05
2023-01-12T03:42:15.385Z,1.00
2023-01-12T03:44:50.964Z,0.90
2023-01-12T03:47:20.717Z,1.20
2023-01-12T03:49:50.899Z,1.00
2023-01-12T03:52:17.447Z,1.10
2023-01-12T03:54:44.036Z,1.08
2023-01-12T03:57:10.655Z,1.00
2023-01-12T03:59:37.177Z,1.10
2023-01-12T04:02:03.825Z,1.30
2023-01-12T04:04:30.448Z,1.15
2023-01-12T04:06:57.043Z,1.20
2023-01-12T04:09:23.608Z,1.10
2023-01-12T04:11:50.149Z,1.10
2023-01-12T04:14:16.699Z,1.33
2023-01-12T04:16:43.279Z,0.85
2023-01-12T04:19:09.821Z,1.10
2023-01-12T04:21:36.408Z,1.23
2023-01-12T04:24:03.049Z,1.23
2023-01-12T04:26:29.635Z,1.20
2023-01-12T04:28:56.201Z,1.10
2023-01-12T04:31:22.801Z,0.90
2023-01-12T04:33:49.377Z,0.90
2023-01-12T04:36:15.924Z,0.98
2023-01-12T04:38:42.557Z,1.10
2023-01-12T04:41:09.252Z,1.10
2023-01-12T04:43:36.109Z,1.02
2023-01-12T04:46:09.343Z,1.10
2023-01-12T04:48:36.131Z,1.23
2023-01-12T04:51:02.702Z,1.30
2023-01-12T04:53:29.325Z,0.85
2023-01-12T04:55:55.860Z,1.00
2023-01-12T04:58:22.431Z,1.02
2023-01-12T05:00:49.044Z,1.10
2023-01-12T05:03:15.851Z,1.40
2023-01-12T05:05:42.394Z,1.40
2023-01-12T05:08:09.410Z,1.17
2023-01-12T05:10:35.946Z,1.10
2023-01-12T05:13:02.520Z,1.05
2023-01-12T05:15:29.084Z,1.42
2023-01-12T05:17:56.714Z,1.50
2023-01-12T05:20:23.431Z,1.20
2023-01-12T05:22:50.020Z,1.05
2023-01-12T05:25:16.737Z,1.30
2023-01-12T05:27:43.326Z,1.38
2023-01-12T05:30:10.314Z,0.98
2023-01-12T05:32:37.767Z,1.42
2023-01-12T05:35:07.780Z,1.30
2023-01-12T05:37:34.374Z,1.25
2023-01-12T05:40:00.946Z,1.30
2023-01-12T05:42:27.492Z,1.30
2023-01-12T05:44:54.056Z,1.00
2023-01-12T05:47:20.616Z,1.05
2023-01-12T05:49:47.231Z,1.23
2023-01-12T05:52:13.770Z,1.38
2023-01-12T05:54:40.331Z,1.10
2023-01-12T05:57:06.903Z,1.10
2023-01-12T05:59:33.481Z,1.05
2023-01-12T06:02:00.091Z,1.25
2023-01-12T06:04:26.774Z,1.42
2023-01-12T06:06:53.341Z,1.10
2023-01-12T06:09:19.897Z,1.02
2023-01-12T06:11:46.446Z,1.20
2023-01-12T06:14:12.979Z,1.30
2023-01-12T06:16:41.153Z,1.13
2023-01-12T06:19:07.767Z,1.50
2023-01-12T06:21:34.433Z,1.08
2023-01-12T06:24:01.124Z,1.08
2023-01-12T06:26:27.672Z,1.15
2023-01-12T06:28:54.225Z,1.10
2023-01-12T06:31:20.822Z,1.13
2023-01-12T06:33:48.656Z,1.20
2023-01-12T06:36:15.234Z,1.02
2023-01-12T06:38:43.621Z,1.30
2023-01-12T06:41:13.352Z,1.00
2023-01-12T06:43:39.940Z,1.30
2023-01-12T06:46:07.633Z,1.35
2023-01-12T06:48:38.710Z,1.15
2023-01-12T06:51:06.366Z,1.10
2023-01-12T06:53:32.959Z,1.10
2023-01-12T06:55:59.629Z,1.23
2023-01-12T06:58:26.153Z,1.10
2023-01-12T07:00:53.637Z,1.13
2023-01-12T07:03:20.327Z,1.38
2023-01-12T07:05:46.872Z,1.05
2023-01-12T07:08:13.427Z,1.20
2023-01-12T07:10:39.987Z,1.08
2023-01-12T07:13:06.592Z,1.02
2023-01-12T07:15:33.137Z,1.20
2023-01-12T07:17:59.728Z,1.20
2023-01-12T07:20:27.055Z,0.90
2023-01-12T07:22:54.807Z,1.20
2023-01-12T07:25:21.393Z,1.08
2023-01-12T07:27:49.475Z,1.20
2023-01-12T07:30:16.564Z,1.10
2023-01-12T07:32:43.082Z,1.10
2023-01-12T07:35:09.872Z,1.10
2023-01-12T07:37:36.473Z,1.20
2023-01-12T07:40:03.004Z,1.05
2023-01-12T07:42:29.555Z,1.40
2023-01-12T07:44:56.122Z,1.27
2023-01-12T07:47:22.966Z,1.20
2023-01-12T07:49:49.550Z,1.00
2023-01-12T07:52:17.524Z,1.17
2023-01-12T07:54:44.066Z,1.25
2023-01-12T07:57:10.749Z,1.10
2023-01-12T07:59:37.308Z,1.08
2023-01-12T08:02:04.361Z,1.30
2023-01-12T08:04:30.957Z,1.20
2023-01-12T08:06:57.541Z,1.20
2023-01-12T08:09:24.194Z,0.90
2023-01-12T08:11:51.557Z,1.45
2023-01-12T08:14:28.456Z,1.30
2023-01-12T08:16:55.473Z,1.13
2023-01-12T08:19:26.579Z,1.00
2023-01-12T08:21:55.849Z,1.30
2023-01-12T08:24:23.339Z,1.13
2023-01-12T08:26:51.257Z,0.95
2023-01-12T08:29:23.663Z,1.25
2023-01-12T08:31:50.211Z,1.23
2023-01-12T08:34:16.759Z,1.15
2023-01-12T08:36:44.412Z,1.13
2023-01-12T08:39:11.262Z,1.00
2023-01-12T08:41:37.842Z,1.17
2023-01-12T08:44:11.664Z,1.30
2023-01-12T08:46:39.431Z,0.95
2023-01-12T08:49:10.645Z,1.13
2023-01-12T08:51:37.430Z,1.08
2023-01-12T08:54:04.268Z,1.00
2023-01-12T08:56:30.848Z,1.40
2023-01-12T08:58:57.371Z,1.40
2023-01-12T09:01:24.004Z,1.00
2023-01-12T09:03:50.678Z,1.10
2023-01-12T09:06:18.388Z,1.38
2023-01-12T09:08:45.378Z,1.10
2023-01-12T09:11:12.681Z,1.30
2023-01-12T09:13:39.410Z,1.38
2023-01-12T09:16:13.361Z,1.05
2023-01-12T09:18:41.395Z,1.10
2023-01-12T09:21:18.302Z,1.25
2023-01-12T09:23:45.358Z,1.00
2023-01-12T09:26:16.361Z,1.20
2023-01-12T09:28:44.352Z,1.38
2023-01-12T09:31:12.632Z,0.90
2023-01-12T09:33:39.540Z,0.95
2023-01-12T09:36:12.397Z,1.08
2023-01-12T09:38:40.634Z,1.33
2023-01-12T09:41:18.313Z,1.40
2023-01-12T09:43:46.324Z,1.23
2023-01-12T09:46:25.991Z,1.10
2023-01-12T09:48:52.540Z,1.00
2023-01-12T09:51:33.299Z,1.10
2023-01-12T09:53:59.867Z,0.95
2023-01-12T09:56:38.302Z,1.10
2023-01-12T09:59:23.109Z,1.20
2023-01-12T10:01:50.723Z,0.98
2023-01-12T10:04:17.348Z,1.05
2023-01-12T10:06:43.922Z,1.30
2023-01-12T10:09:21.289Z,1.00
2023-01-12T10:12:22.905Z,0.93
2023-01-12T10:14:49.310Z,1.10
2023-01-12T10:17:50.757Z,1.20
2023-01-12T10:20:27.360Z,1.10
2023-01-12T10:23:09.133Z,0.93
2023-01-12T10:25:49.813Z,1.10
2023-01-12T10:28:26.580Z,0.98
2023-01-12T10:30:56.100Z,1.02
2023-01-12T10:33:24.387Z,1.08
2023-01-12T10:35:57.963Z,1.10
2023-01-12T10:38:30.180Z,1.10
2023-01-12T10:41:09.867Z,1.10
2023-01-12T10:43:37.041Z,1.00
2023-01-12T10:46:09.670Z,0.82
2023-01-12T10:48:36.410Z,0.90
2023-01-12T10:51:04.787Z,0.82
2023-01-12T10:53:35.334Z,0.90
2023-01-12T10:56:11.262Z,1.17
2023-01-12T10:58:38.184Z,0.82
2023-01-12T11:01:05.932Z,0.90
2023-01-12T11:03:36.199Z,1.08
2023-01-12T11:06:28.505Z,1.35
2023-01-12T11:08:55.217Z,0.93
2023-01-12T11:11:27.177Z,1.20
2023-01-12T11:13:58.895Z,0.95
2023-01-12T11:16:28.781Z,1.00
2023-01-12T11:19:03.507Z,0.95
2023-01-12T11:21:32.429Z,1.02
2023-01-12T11:24:25.188Z,1.00
2023-01-12T11:26:57.216Z,0.68
2023-01-12T11:29:48.575Z,1.10
2023-01-12T11:32:29.071Z,0.73
2023-01-12T11:35:10.237Z,0.90
2023-01-12T11:37:37.907Z,1.00
2023-01-12T11:40:08.050Z,0.88
2023-01-12T11:42:34.635Z,0.80
2023-01-12T11:45:22.403Z,1.10
2023-01-12T11:47:55.245Z,1.00
2023-01-12T11:50:29.659Z,0.93
2023-01-12T11:52:56.364Z,0.77
2023-01-12T11:55:54.119Z,0.95
2023-01-12T11:58:25.071Z,1.10
2023-01-12T12:01:03.539Z,1.10
2023-01-12T12:04:00.736Z,0.75
2023-01-12T12:06:36.670Z,0.90
2023-01-12T12:09:16.586Z,1.08
2023-01-12T12:12:04.948Z,1.00
2023-01-12T12:14:34.580Z,0.85
2023-01-12T12:17:15.852Z,0.70
2023-01-12T12:20:11.280Z,0.70
2023-01-12T12:23:10.380Z,1.05
2023-01-12T12:25:45.850Z,1.00
2023-01-12T12:30:52.452Z,0.80
2023-01-12T12:33:37.289Z,0.93
2023-01-12T12:36:30.053Z,0.70
2023-01-12T12:39:11.855Z,0.80
2023-01-12T12:42:07.774Z,0.73
2023-01-12T12:44:59.368Z,0.85
2023-01-12T12:47:34.932Z,0.88
2023-01-12T12:52:27.863Z,0.90
2023-01-12T12:54:54.388Z,1.00
2023-01-12T12:57:20.940Z,0.90
2023-01-12T12:59:54.351Z,0.75
2023-01-12T13:02:33.964Z,0.88
2023-01-12T13:05:04.638Z,1.20
2023-01-12T13:07:33.804Z,1.00
2023-01-12T13:10:15.826Z,1.13
2023-01-12T13:12:42.346Z,0.82
2023-01-12T13:15:21.978Z,0.80
2023-01-12T13:17:49.179Z,1.17
2023-01-12T13:20:25.765Z,0.77
2023-01-12T13:22:53.965Z,0.90
2023-01-12T13:25:20.479Z,0.80
2023-01-12T13:28:10.526Z,0.85
2023-01-12T13:30:50.550Z,0.88
2023-01-12T13:33:22.139Z,0.98
2023-01-12T13:35:48.627Z,0.70
2023-01-12T13:38:34.385Z,0.65
2023-01-12T13:41:30.070Z,0.93
2023-01-12T13:43:57.228Z,0.77
2023-01-12T13:46:28.482Z,0.75
2023-01-12T13:48:55.931Z,0.88
2023-01-12T13:51:38.187Z,0.70
2023-01-12T13:54:12.400Z,0.82
2023-01-12T13:56:39.902Z,0.90
2023-01-12T13:59:07.734Z,0.93
2023-01-12T14:01:36.270Z,0.90
2023-01-12T14:04:14.975Z,0.60
2023-01-12T14:07:07.133Z,0.80
2023-01-12T14:09:57.527Z,0.88
2023-01-12T14:12:36.224Z,0.70
2023-01-12T14:15:18.624Z,0.70
2023-01-12T14:17:45.203Z,0.70
2023-01-12T14:20:24.635Z,0.52
2023-01-12T14:23:05.361Z,0.70
2023-01-12T14:25:31.953Z,0.93
2023-01-12T14:27:58.509Z,0.77
2023-01-12T14:30:25.771Z,0.85
2023-01-12T14:32:52.307Z,0.90
2023-01-12T14:35:24.851Z,0.73
2023-01-12T14:37:52.349Z,0.70
2023-01-12T14:40:21.106Z,0.98
2023-01-12T14:42:47.639Z,0.85
2023-01-12T14:45:24.039Z,0.73
2023-01-12T14:47:50.577Z,0.80
2023-01-12T14:50:18.499Z,0.63
2023-01-12T14:52:45.852Z,0.90
2023-01-12T14:55:25.392Z,0.70
2023-01-12T14:58:01.009Z,0.63
2023-01-12T15:02:55.753Z,0.70
2023-01-12T15:05:26.590Z,0.90
2023-01-12T15:08:00.048Z,0.70
2023-01-12T15:10:29.513Z,0.70
2023-01-12T15:13:12.432Z,0.60
2023-01-12T15:15:38.987Z,0.80
2023-01-12T15:18:05.522Z,0.88
2023-01-12T15:20:35.078Z,0.63
2023-01-12T15:23:01.814Z,0.70
2023-01-12T15:25:28.371Z,0.70
2023-01-12T15:27:54.899Z,0.80
2023-01-12T15:30:21.749Z,0.95
2023-01-12T15:32:48.815Z,0.70
2023-01-12T15:35:16.839Z,0.57
2023-01-12T15:37:43.586Z,0.82
2023-01-12T15:40:13.128Z,0.70
2023-01-12T15:42:39.743Z,0.80
2023-01-12T15:45:28.670Z,0.70
2023-01-12T15:47:55.211Z,0.90
2023-01-12T15:50:21.754Z,0.60
2023-01-12T15:52:48.441Z,0.68
2023-01-12T15:55:19.227Z,0.63
2023-01-12T15:57:47.688Z,0.90
2023-01-12T16:00:15.617Z,0.80
2023-01-12T16:02:42.225Z,0.80
2023-01-12T16:05:09.567Z,0.68
2023-01-12T16:07:36.107Z,0.60
2023-01-12T16:10:03.303Z,0.80
2023-01-12T16:12:29.904Z,0.77
2023-01-12T16:14:56.529Z,0.60
2023-01-12T16:17:23.116Z,0.65
2023-01-12T16:19:49.677Z,0.60
2023-01-12T16:22:22.651Z,0.65
2023-01-12T16:24:49.660Z,0.90
2023-01-12T16:27:16.774Z,0.68
2023-01-12T16:29:43.472Z,0.60
2023-01-12T16:32:10.140Z,0.68
2023-01-12T16:34:36.792Z,0.80
2023-01-12T16:37:03.537Z,0.70
2023-01-12T16:39:30.245Z,1.05
2023-01-12T16:41:56.925Z,0.75
2023-01-12T16:44:23.489Z,0.63
2023-01-12T16:46:52.532Z,0.80
2023-01-12T16:49:19.090Z,0.60
2023-01-12T16:51:45.712Z,0.60
2023-01-12T16:54:12.298Z,0.80
2023-01-12T16:56:38.799Z,0.60
2023-01-12T16:59:05.385Z,0.70
2023-01-12T17:01:32.149Z,0.60
2023-01-12T17:04:00.595Z,0.60
2023-01-12T17:06:27.962Z,0.70
2023-01-12T17:08:55.647Z,0.70
2023-01-12T17:11:22.352Z,0.60
2023-01-12T17:13:54.441Z,0.70
2023-01-12T17:16:21.985Z,0.77
2023-01-12T17:18:49.733Z,0.90
2023-01-12T17:21:16.768Z,0.70
2023-01-12T17:23:43.846Z,0.70
2023-01-12T17:26:12.109Z,0.60
2023-01-12T17:28:39.924Z,0.60
2023-01-12T17:31:09.849Z,0.80
2023-01-12T17:33:37.039Z,0.68
2023-01-12T17:36:04.771Z,0.85
2023-01-12T17:38:33.969Z,0.80
2023-01-12T17:41:00.568Z,0.80
2023-01-12T17:43:27.154Z,0.77
2023-01-12T17:45:53.678Z,0.93
2023-01-12T17:48:20.491Z,0.80
2023-01-12T17:50:47.108Z,0.63
2023-01-12T17:53:14.694Z,0.70
2023-01-12T17:55:48.324Z,0.70
2023-01-12T17:58:15.737Z,0.70
2023-01-12T18:00:42.255Z,0.70
2023-01-12T18:03:08.897Z,0.80
2023-01-12T18:05:35.552Z,0.70
2023-01-12T18:08:02.089Z,0.70
2023-01-12T18:10:28.688Z,0.70
2023-01-12T18:12:55.233Z,0.60
2023-01-12T18:15:21.786Z,0.75
2023-01-12T18:17:48.385Z,0.90
2023-01-12T18:20:15.027Z,0.70
2023-01-12T18:22:41.607Z,0.80
2023-01-12T18:25:08.614Z,0.77
2023-01-12T18:27:35.435Z,0.70
2023-01-12T18:30:05.457Z,0.90
2023-01-12T18:32:32.105Z,0.90
2023-01-12T18:34:58.859Z,0.65
2023-01-12T18:37:25.481Z,0.80
2023-01-12T18:39:52.198Z,0.80
2023-01-12T18:42:18.789Z,0.90
2023-01-12T18:44:45.427Z,0.90
2023-01-12T18:47:16.870Z,0.80
2023-01-12T18:49:44.108Z,0.80
2023-01-12T18:52:11.695Z,0.75
2023-01-12T18:54:38.777Z,0.88
2023-01-12T18:57:05.452Z,1.15
2023-01-12T18:59:32.383Z,0.80
2023-01-12T19:01:58.972Z,0.80
2023-01-12T19:04:25.600Z,0.88
2023-01-12T19:06:52.176Z,0.88
2023-01-12T19:09:20.655Z,0.70
2023-01-12T19:11:47.217Z,0.60
2023-01-12T19:14:13.758Z,0.80
2023-01-12T19:16:40.353Z,0.70
2023-01-12T19:19:06.861Z,0.70
2023-01-12T19:21:34.513Z,0.75
2023-01-12T19:24:01.060Z,0.85
2023-01-12T19:26:27.601Z,0.90
2023-01-12T19:28:54.258Z,0.77
2023-01-12T19:31:20.912Z,0.80
2023-01-12T19:33:48.339Z,0.73
2023-01-12T19:36:15.127Z,1.00
2023-01-12T19:38:41.903Z,0.75
2023-01-12T19:41:12.256Z,0.75
2023-01-12T19:43:39.077Z,0.70
2023-01-12T19:46:06.290Z,0.90
2023-01-12T19:48:32.883Z,0.90
2023-01-12T19:51:10.180Z,0.77
2023-01-12T19:53:38.470Z,0.70
2023-01-12T19:56:09.319Z,0.80
2023-01-12T19:58:36.030Z,0.60
2023-01-12T20:01:02.587Z,0.80
2023-01-12T20:03:29.188Z,0.77
2023-01-12T20:05:57.264Z,0.90
2023-01-12T20:08:24.532Z,1.05
2023-01-12T20:10:58.302Z,0.80
2023-01-12T20:13:25.356Z,0.80
2023-01-12T20:15:51.951Z,1.40
2023-01-12T20:18:18.524Z,0.90
2023-01-12T20:20:45.192Z,0.80
2023-01-12T20:23:12.250Z,0.90
2023-01-12T20:25:39.844Z,0.90
2023-01-12T20:28:06.752Z,0.90
2023-01-12T20:30:37.991Z,0.98
2023-01-12T20:33:06.280Z,0.90
2023-01-12T20:35:32.929Z,0.98
2023-01-12T20:37:59.509Z,0.95
2023-01-12T20:40:26.070Z,0.93
2023-01-12T20:42:53.247Z,1.10
2023-01-12T20:45:19.870Z,1.00
2023-01-12T20:47:47.211Z,0.88
2023-01-12T20:50:13.791Z,0.90
2023-01-12T20:52:40.464Z,0.98
2023-01-12T20:55:07.145Z,0.90
2023-01-12T20:57:34.825Z,0.90
2023-01-12T21:00:01.564Z,1.02
2023-01-12T21:02:28.184Z,0.80
2023-01-12T21:04:54.721Z,1.00
2023-01-12T21:07:21.906Z,1.00
2023-01-12T21:09:48.626Z,1.10
2023-01-12T21:12:15.382Z,0.88
2023-01-12T21:14:41.918Z,1.00
2023-01-12T21:17:08.461Z,0.80
2023-01-12T21:19:35.482Z,0.98
2023-01-12T21:22:02.027Z,0.95
2023-01-12T21:24:28.605Z,1.00
2023-01-12T21:26:55.207Z,0.95
2023-01-12T21:29:22.240Z,1.10
2023-01-12T21:31:48.928Z,0.80
2023-01-12T21:34:15.493Z,0.98
2023-01-12T21:36:42.055Z,0.90
2023-01-12T21:39:08.599Z,0.90
2023-01-12T21:41:37.118Z,1.10
2023-01-12T21:44:03.663Z,0.88
2023-01-12T21:46:30.217Z,1.13
2023-01-12T21:48:56.769Z,1.00
2023-01-12T21:51:23.362Z,0.90
2023-01-12T21:53:49.854Z,0.95
2023-01-12T21:56:16.381Z,0.90
2023-01-12T21:58:42.959Z,0.88
2023-01-12T22:01:13.257Z,0.80
2023-01-12T22:03:40.056Z,0.80
2023-01-12T22:06:08.686Z,0.90
2023-01-12T22:08:36.201Z,1.30
2023-01-12T22:11:10.523Z,0.80
2023-01-12T22:13:37.180Z,0.80
2023-01-12T22:16:08.698Z,1.00
2023-01-12T22:18:36.053Z,1.00
2023-01-12T22:21:03.363Z,0.90
2023-01-12T22:23:30.048Z,1.02
2023-01-12T22:26:00.827Z,0.77
2023-01-12T22:28:27.355Z,0.90
2023-01-12T22:30:53.902Z,1.00
2023-01-12T22:33:20.473Z,1.20
2023-01-12T22:35:47.070Z,0.90
2023-01-12T22:38:13.634Z,1.00
2023-01-12T22:40:40.157Z,1.00
2023-01-12T22:43:06.714Z,1.08
2023-01-12T22:45:33.916Z,1.17
2023-01-12T22:48:00.578Z,1.02
2023-01-12T22:50:27.131Z,0.80
2023-01-12T22:52:53.730Z,1.00
2023-01-12T22:55:21.160Z,0.93
2023-01-12T22:57:47.718Z,0.80
2023-01-12T23:00:17.611Z,0.80
2023-01-12T23:02:44.387Z,0.85
2023-01-12T23:05:11.102Z,0.95
2023-01-12T23:07:37.796Z,0.90
2023-01-12T23:10:04.908Z,0.88
2023-01-12T23:12:31.585Z,0.95
2023-01-12T23:14:58.373Z,0.90
2023-01-12T23:17:25.010Z,1.00
2023-01-12T23:19:51.684Z,0.77
2023-01-12T23:22:18.565Z,0.80
2023-01-12T23:24:45.231Z,0.93
2023-01-12T23:27:11.902Z,0.85
2023-01-12T23:29:38.571Z,0.77
2023-01-12T23:32:05.497Z,1.08
2023-01-12T23:34:32.251Z,0.85
2023-01-12T23:36:58.919Z,0.90
2023-01-12T23:39:25.621Z,0.93
2023-01-12T23:41:52.300Z,0.80
2023-01-12T23:44:19.026Z,0.80
2023-01-12T23:46:45.690Z,0.93
2023-01-12T23:49:12.377Z,0.77
2023-01-12T23:51:39.057Z,0.80
2023-01-12T23:54:05.775Z,0.95
2023-01-12T23:56:32.831Z,0.75
2023-01-12T23:58:59.559Z,0.70
